sensor_id;sensor_type;location;lat;lon;timestamp;temperature;humidity
21331;DHT22;10824;51.632;4.950;2022-09-28T00:01:08;9.00;99.90
21331;DHT22;10824;51.632;4.950;2022-09-28T00:03:36;9.00;99.90
21331;DHT22;10824;51.632;4.950;2022-09-28T00:06:06;9.00;99.90
21331;DHT22;10824;51.632;4.950;2022-09-28T00:08:35;9.00;99.90
21331;DHT22;10824;51.632;4.950;2022-09-28T00:11:04;9.00;99.90
21331;DHT22;10824;51.632;4.950;2022-09-28T00:13:32;9.00;99.90
21331;DHT22;10824;51.632;4.950;2022-09-28T00:16:06;9.00;99.90
21331;DHT22;10824;51.632;4.950;2022-09-28T00:18:34;9.00;99.90
21331;DHT22;10824;51.632;4.950;2022-09-28T00:21:07;9.00;99.90
21331;DHT22;10824;51.632;4.950;2022-09-28T00:23:35;9.00;99.90
21331;DHT22;10824;51.632;4.950;2022-09-28T00:26:26;9.00;99.90
21331;DHT22;10824;51.632;4.950;2022-09-28T00:28:57;9.00;99.90
21331;DHT22;10824;51.632;4.950;2022-09-28T00:31:30;9.00;99.90
21331;DHT22;10824;51.632;4.950;2022-09-28T00:34:02;9.00;99.90
21331;DHT22;10824;51.632;4.950;2022-09-28T00:36:31;9.10;99.90
21331;DHT22;10824;51.632;4.950;2022-09-28T00:39:03;9.10;99.90
21331;DHT22;10824;51.632;4.950;2022-09-28T00:41:33;9.10;99.90
21331;DHT22;10824;51.632;4.950;2022-09-28T00:50:00;9.00;99.90
21331;DHT22;10824;51.632;4.950;2022-09-28T00:55:16;9.00;99.90
21331;DHT22;10824;51.632;4.950;2022-09-28T00:57:49;9.00;99.90
21331;DHT22;10824;51.632;4.950;2022-09-28T01:00:18;8.90;99.90
21331;DHT22;10824;51.632;4.950;2022-09-28T01:02:46;8.90;99.90
21331;DHT22;10824;51.632;4.950;2022-09-28T01:05:14;8.90;99.90
21331;DHT22;10824;51.632;4.950;2022-09-28T01:07:45;8.90;99.90
21331;DHT22;10824;51.632;4.950;2022-09-28T01:10:13;8.90;99.90
21331;DHT22;10824;51.632;4.950;2022-09-28T01:12:43;8.90;99.90
21331;DHT22;10824;51.632;4.950;2022-09-28T01:15:11;8.80;99.90
21331;DHT22;10824;51.632;4.950;2022-09-28T01:26:33;8.70;99.90
21331;DHT22;10824;51.632;4.950;2022-09-28T01:32:13;8.80;99.90
21331;DHT22;10824;51.632;4.950;2022-09-28T01:37:43;8.80;99.90
21331;DHT22;10824;51.632;4.950;2022-09-28T01:40:13;8.70;99.90
21331;DHT22;10824;51.632;4.950;2022-09-28T01:42:43;8.70;99.90
21331;DHT22;10824;51.632;4.950;2022-09-28T01:45:27;8.70;99.90
21331;DHT22;10824;51.632;4.950;2022-09-28T01:48:00;8.70;99.90
21331;DHT22;10824;51.632;4.950;2022-09-28T01:50:29;8.70;99.90
21331;DHT22;10824;51.632;4.950;2022-09-28T01:53:15;8.70;99.90
21331;DHT22;10824;51.632;4.950;2022-09-28T01:55:59;8.70;99.90
21331;DHT22;10824;51.632;4.950;2022-09-28T01:58:52;8.70;99.90
21331;DHT22;10824;51.632;4.950;2022-09-28T02:01:33;8.80;99.90
21331;DHT22;10824;51.632;4.950;2022-09-28T02:04:12;8.80;99.90
21331;DHT22;10824;51.632;4.950;2022-09-28T02:06:59;8.80;99.90
21331;DHT22;10824;51.632;4.950;2022-09-28T02:09:35;8.80;99.90
21331;DHT22;10824;51.632;4.950;2022-09-28T02:12:20;8.70;99.90
21331;DHT22;10824;51.632;4.950;2022-09-28T02:14:53;8.80;99.90
21331;DHT22;10824;51.632;4.950;2022-09-28T02:17:21;8.80;99.90
21331;DHT22;10824;51.632;4.950;2022-09-28T02:19:48;8.70;99.90
21331;DHT22;10824;51.632;4.950;2022-09-28T02:22:24;8.80;99.90
21331;DHT22;10824;51.632;4.950;2022-09-28T02:25:02;8.70;99.90
21331;DHT22;10824;51.632;4.950;2022-09-28T02:30:17;8.70;99.90
21331;DHT22;10824;51.632;4.950;2022-09-28T02:32:46;8.70;99.90
21331;DHT22;10824;51.632;4.950;2022-09-28T02:35:17;8.70;99.90
21331;DHT22;10824;51.632;4.950;2022-09-28T02:37:44;8.70;99.90
21331;DHT22;10824;51.632;4.950;2022-09-28T02:40:17;8.70;99.90
21331;DHT22;10824;51.632;4.950;2022-09-28T02:43:25;8.80;99.90
21331;DHT22;10824;51.632;4.950;2022-09-28T02:46:23;8.80;99.90
21331;DHT22;10824;51.632;4.950;2022-09-28T03:00:42;8.80;99.90
21331;DHT22;10824;51.632;4.950;2022-09-28T03:09:19;8.70;99.90
21331;DHT22;10824;51.632;4.950;2022-09-28T03:12:07;8.70;99.90
21331;DHT22;10824;51.632;4.950;2022-09-28T03:14:35;8.70;99.90
21331;DHT22;10824;51.632;4.950;2022-09-28T03:17:02;8.70;99.90
21331;DHT22;10824;51.632;4.950;2022-09-28T03:19:32;8.70;99.90
21331;DHT22;10824;51.632;4.950;2022-09-28T03:22:00;8.70;99.90
21331;DHT22;10824;51.632;4.950;2022-09-28T03:24:27;8.60;99.90
21331;DHT22;10824;51.632;4.950;2022-09-28T03:26:54;8.60;99.90
21331;DHT22;10824;51.632;4.950;2022-09-28T03:29:21;8.60;99.90
21331;DHT22;10824;51.632;4.950;2022-09-28T03:31:56;8.60;99.90
21331;DHT22;10824;51.632;4.950;2022-09-28T03:34:23;8.60;99.90
21331;DHT22;10824;51.632;4.950;2022-09-28T03:36:50;8.50;99.90
21331;DHT22;10824;51.632;4.950;2022-09-28T03:39:18;8.60;99.90
21331;DHT22;10824;51.632;4.950;2022-09-28T03:41:45;8.60;99.90
21331;DHT22;10824;51.632;4.950;2022-09-28T03:44:12;8.60;99.90
21331;DHT22;10824;51.632;4.950;2022-09-28T03:46:42;8.70;99.90
21331;DHT22;10824;51.632;4.950;2022-09-28T03:49:09;8.70;99.90
21331;DHT22;10824;51.632;4.950;2022-09-28T03:51:42;8.70;99.90
21331;DHT22;10824;51.632;4.950;2022-09-28T03:54:09;8.70;99.90
21331;DHT22;10824;51.632;4.950;2022-09-28T03:56:36;8.70;99.90
21331;DHT22;10824;51.632;4.950;2022-09-28T03:59:06;8.70;99.90
21331;DHT22;10824;51.632;4.950;2022-09-28T04:01:34;8.70;99.90
21331;DHT22;10824;51.632;4.950;2022-09-28T04:04:01;8.70;99.90
21331;DHT22;10824;51.632;4.950;2022-09-28T04:06:31;8.70;99.90
21331;DHT22;10824;51.632;4.950;2022-09-28T04:08:58;8.60;99.90
21331;DHT22;10824;51.632;4.950;2022-09-28T04:11:26;8.60;99.90
21331;DHT22;10824;51.632;4.950;2022-09-28T04:14:00;8.50;99.90
21331;DHT22;10824;51.632;4.950;2022-09-28T04:16:29;8.50;99.90
21331;DHT22;10824;51.632;4.950;2022-09-28T04:19:09;8.50;99.90
21331;DHT22;10824;51.632;4.950;2022-09-28T04:21:39;8.50;99.90
21331;DHT22;10824;51.632;4.950;2022-09-28T04:24:09;8.40;99.90
21331;DHT22;10824;51.632;4.950;2022-09-28T04:26:37;8.40;99.90
21331;DHT22;10824;51.632;4.950;2022-09-28T04:29:05;8.30;99.90
21331;DHT22;10824;51.632;4.950;2022-09-28T04:31:55;8.30;99.90
21331;DHT22;10824;51.632;4.950;2022-09-28T04:34:41;8.30;99.90
21331;DHT22;10824;51.632;4.950;2022-09-28T04:37:10;8.30;99.90
21331;DHT22;10824;51.632;4.950;2022-09-28T04:39:38;8.30;99.90
21331;DHT22;10824;51.632;4.950;2022-09-28T04:42:13;8.30;99.90
21331;DHT22;10824;51.632;4.950;2022-09-28T04:44:40;8.20;99.90
21331;DHT22;10824;51.632;4.950;2022-09-28T04:47:08;8.20;99.90
21331;DHT22;10824;51.632;4.950;2022-09-28T04:49:47;8.20;99.90
21331;DHT22;10824;51.632;4.950;2022-09-28T04:52:23;8.20;99.90
21331;DHT22;10824;51.632;4.950;2022-09-28T04:54:51;8.20;99.90
21331;DHT22;10824;51.632;4.950;2022-09-28T04:57:18;8.10;99.90
21331;DHT22;10824;51.632;4.950;2022-09-28T04:59:45;8.00;99.90
21331;DHT22;10824;51.632;4.950;2022-09-28T05:02:12;8.10;99.90
21331;DHT22;10824;51.632;4.950;2022-09-28T05:05:10;8.10;99.90
21331;DHT22;10824;51.632;4.950;2022-09-28T05:07:46;8.10;99.90
21331;DHT22;10824;51.632;4.950;2022-09-28T05:10:16;8.10;99.90
21331;DHT22;10824;51.632;4.950;2022-09-28T05:12:46;8.00;99.90
21331;DHT22;10824;51.632;4.950;2022-09-28T05:15:13;8.00;99.90
21331;DHT22;10824;51.632;4.950;2022-09-28T05:17:40;8.10;99.90
21331;DHT22;10824;51.632;4.950;2022-09-28T05:20:27;8.10;99.90
21331;DHT22;10824;51.632;4.950;2022-09-28T05:22:55;8.10;99.90
21331;DHT22;10824;51.632;4.950;2022-09-28T05:25:22;8.10;99.90
21331;DHT22;10824;51.632;4.950;2022-09-28T05:28:02;8.10;99.90
21331;DHT22;10824;51.632;4.950;2022-09-28T05:30:38;8.10;99.90
21331;DHT22;10824;51.632;4.950;2022-09-28T05:33:25;8.10;99.90
21331;DHT22;10824;51.632;4.950;2022-09-28T05:36:08;8.10;99.90
21331;DHT22;10824;51.632;4.950;2022-09-28T05:38:36;8.10;99.90
21331;DHT22;10824;51.632;4.950;2022-09-28T05:41:04;8.10;99.90
21331;DHT22;10824;51.632;4.950;2022-09-28T05:43:32;8.20;99.90
21331;DHT22;10824;51.632;4.950;2022-09-28T05:46:02;8.20;99.90
21331;DHT22;10824;51.632;4.950;2022-09-28T05:48:30;8.20;99.90
21331;DHT22;10824;51.632;4.950;2022-09-28T05:50:58;8.30;99.90
21331;DHT22;10824;51.632;4.950;2022-09-28T05:53:25;8.30;99.90
21331;DHT22;10824;51.632;4.950;2022-09-28T05:55:56;8.30;99.90
21331;DHT22;10824;51.632;4.950;2022-09-28T05:58:24;8.30;99.90
21331;DHT22;10824;51.632;4.950;2022-09-28T06:00:54;8.30;99.90
21331;DHT22;10824;51.632;4.950;2022-09-28T06:03:22;8.30;99.90
21331;DHT22;10824;51.632;4.950;2022-09-28T06:05:49;8.40;99.90
21331;DHT22;10824;51.632;4.950;2022-09-28T06:08:17;8.40;99.90
21331;DHT22;10824;51.632;4.950;2022-09-28T06:10:49;8.40;99.90
21331;DHT22;10824;51.632;4.950;2022-09-28T06:13:16;8.50;99.90
21331;DHT22;10824;51.632;4.950;2022-09-28T06:15:45;8.50;99.90
21331;DHT22;10824;51.632;4.950;2022-09-28T06:18:15;8.60;99.90
21331;DHT22;10824;51.632;4.950;2022-09-28T06:21:05;8.60;99.90
21331;DHT22;10824;51.632;4.950;2022-09-28T06:23:41;8.60;99.90
21331;DHT22;10824;51.632;4.950;2022-09-28T06:26:15;8.60;99.90
21331;DHT22;10824;51.632;4.950;2022-09-28T06:28:43;8.70;99.90
21331;DHT22;10824;51.632;4.950;2022-09-28T06:31:11;8.70;99.90
21331;DHT22;10824;51.632;4.950;2022-09-28T06:33:47;8.70;99.90
21331;DHT22;10824;51.632;4.950;2022-09-28T06:36:17;8.70;99.90
21331;DHT22;10824;51.632;4.950;2022-09-28T06:38:45;8.70;99.90
21331;DHT22;10824;51.632;4.950;2022-09-28T06:41:13;8.70;99.90
21331;DHT22;10824;51.632;4.950;2022-09-28T06:43:46;8.80;99.90
21331;DHT22;10824;51.632;4.950;2022-09-28T06:46:32;8.80;99.90
21331;DHT22;10824;51.632;4.950;2022-09-28T06:49:18;8.80;99.90
21331;DHT22;10824;51.632;4.950;2022-09-28T06:52:15;8.80;99.90
21331;DHT22;10824;51.632;4.950;2022-09-28T06:55:01;8.90;99.90
21331;DHT22;10824;51.632;4.950;2022-09-28T06:57:43;8.90;99.90
21331;DHT22;10824;51.632;4.950;2022-09-28T07:00:11;8.90;99.90
21331;DHT22;10824;51.632;4.950;2022-09-28T07:02:38;9.00;99.90
21331;DHT22;10824;51.632;4.950;2022-09-28T07:05:25;9.00;99.90
21331;DHT22;10824;51.632;4.950;2022-09-28T07:08:25;9.00;99.90
21331;DHT22;10824;51.632;4.950;2022-09-28T07:11:21;9.00;99.90
21331;DHT22;10824;51.632;4.950;2022-09-28T07:14:11;9.10;99.90
21331;DHT22;10824;51.632;4.950;2022-09-28T07:16:55;9.20;99.90
21331;DHT22;10824;51.632;4.950;2022-09-28T07:19:38;9.20;99.90
21331;DHT22;10824;51.632;4.950;2022-09-28T07:22:05;9.30;99.90
21331;DHT22;10824;51.632;4.950;2022-09-28T07:24:32;9.40;99.90
21331;DHT22;10824;51.632;4.950;2022-09-28T07:27:18;9.50;99.90
21331;DHT22;10824;51.632;4.950;2022-09-28T07:30:10;9.60;99.90
21331;DHT22;10824;51.632;4.950;2022-09-28T07:33:05;9.60;99.90
21331;DHT22;10824;51.632;4.950;2022-09-28T07:35:54;9.60;99.90
21331;DHT22;10824;51.632;4.950;2022-09-28T07:38:26;9.80;99.90
21331;DHT22;10824;51.632;4.950;2022-09-28T07:40:55;9.90;99.90
21331;DHT22;10824;51.632;4.950;2022-09-28T07:43:42;10.00;99.90
21331;DHT22;10824;51.632;4.950;2022-09-28T07:46:10;10.10;99.90
21331;DHT22;10824;51.632;4.950;2022-09-28T07:48:43;10.10;99.90
21331;DHT22;10824;51.632;4.950;2022-09-28T07:51:43;10.20;99.90
21331;DHT22;10824;51.632;4.950;2022-09-28T07:54:22;10.30;99.90
21331;DHT22;10824;51.632;4.950;2022-09-28T07:57:22;10.40;99.90
21331;DHT22;10824;51.632;4.950;2022-09-28T08:00:01;10.50;99.90
21331;DHT22;10824;51.632;4.950;2022-09-28T08:02:41;10.50;99.90
21331;DHT22;10824;51.632;4.950;2022-09-28T08:05:10;10.50;99.90
21331;DHT22;10824;51.632;4.950;2022-09-28T08:07:38;10.50;99.90
21331;DHT22;10824;51.632;4.950;2022-09-28T08:10:08;10.60;99.90
21331;DHT22;10824;51.632;4.950;2022-09-28T08:12:54;10.60;99.90
21331;DHT22;10824;51.632;4.950;2022-09-28T08:15:47;10.60;99.90
21331;DHT22;10824;51.632;4.950;2022-09-28T08:18:24;10.80;99.90
21331;DHT22;10824;51.632;4.950;2022-09-28T08:20:54;10.90;99.90
21331;DHT22;10824;51.632;4.950;2022-09-28T08:23:40;10.90;99.90
21331;DHT22;10824;51.632;4.950;2022-09-28T08:26:07;11.00;99.90
21331;DHT22;10824;51.632;4.950;2022-09-28T08:28:42;10.90;99.90
21331;DHT22;10824;51.632;4.950;2022-09-28T08:31:47;11.10;99.90
21331;DHT22;10824;51.632;4.950;2022-09-28T08:34:38;11.20;99.90
21331;DHT22;10824;51.632;4.950;2022-09-28T08:37:40;11.20;99.90
21331;DHT22;10824;51.632;4.950;2022-09-28T08:40:49;11.40;99.90
21331;DHT22;10824;51.632;4.950;2022-09-28T08:43:56;11.40;99.90
21331;DHT22;10824;51.632;4.950;2022-09-28T08:46:46;11.50;99.90
21331;DHT22;10824;51.632;4.950;2022-09-28T08:49:45;11.60;99.90
21331;DHT22;10824;51.632;4.950;2022-09-28T08:52:36;11.60;99.90
21331;DHT22;10824;51.632;4.950;2022-09-28T08:55:32;11.80;99.90
21331;DHT22;10824;51.632;4.950;2022-09-28T08:58:13;11.80;99.90
21331;DHT22;10824;51.632;4.950;2022-09-28T09:00:49;11.90;99.90
21331;DHT22;10824;51.632;4.950;2022-09-28T09:03:28;11.80;99.90
21331;DHT22;10824;51.632;4.950;2022-09-28T09:06:25;11.70;99.90
21331;DHT22;10824;51.632;4.950;2022-09-28T09:09:29;11.80;99.90
21331;DHT22;10824;51.632;4.950;2022-09-28T09:20:53;12.30;99.90
21331;DHT22;10824;51.632;4.950;2022-09-28T09:27:17;12.40;99.90
21331;DHT22;10824;51.632;4.950;2022-09-28T09:30:12;12.40;99.90
21331;DHT22;10824;51.632;4.950;2022-09-28T09:36:29;12.60;99.90
21331;DHT22;10824;51.632;4.950;2022-09-28T09:49:21;13.00;99.90
21331;DHT22;10824;51.632;4.950;2022-09-28T09:52:05;13.00;99.90
21331;DHT22;10824;51.632;4.950;2022-09-28T09:57:37;12.90;99.90
21331;DHT22;10824;51.632;4.950;2022-09-28T10:00:26;13.00;99.90
21331;DHT22;10824;51.632;4.950;2022-09-28T10:03:05;13.10;99.90
21331;DHT22;10824;51.632;4.950;2022-09-28T10:05:38;12.80;99.70
21331;DHT22;10824;51.632;4.950;2022-09-28T10:08:15;12.90;99.90
21331;DHT22;10824;51.632;4.950;2022-09-28T10:10:50;12.90;99.90
21331;DHT22;10824;51.632;4.950;2022-09-28T10:13:19;12.70;99.90
21331;DHT22;10824;51.632;4.950;2022-09-28T10:15:47;12.80;99.90
21331;DHT22;10824;51.632;4.950;2022-09-28T10:18:35;13.00;99.90
21331;DHT22;10824;51.632;4.950;2022-09-28T10:21:38;13.30;99.40
21331;DHT22;10824;51.632;4.950;2022-09-28T10:24:32;13.30;99.70
21331;DHT22;10824;51.632;4.950;2022-09-28T10:27:06;13.40;98.00
21331;DHT22;10824;51.632;4.950;2022-09-28T10:29:42;13.40;97.30
21331;DHT22;10824;51.632;4.950;2022-09-28T10:32:21;13.40;97.70
21331;DHT22;10824;51.632;4.950;2022-09-28T10:34:52;13.50;95.60
21331;DHT22;10824;51.632;4.950;2022-09-28T10:37:27;13.50;94.40
21331;DHT22;10824;51.632;4.950;2022-09-28T10:45:43;13.60;95.30
21331;DHT22;10824;51.632;4.950;2022-09-28T10:48:21;13.60;97.60
21331;DHT22;10824;51.632;4.950;2022-09-28T10:51:38;13.60;96.90
21331;DHT22;10824;51.632;4.950;2022-09-28T10:54:18;13.60;96.70
21331;DHT22;10824;51.632;4.950;2022-09-28T10:56:51;13.70;95.80
21331;DHT22;10824;51.632;4.950;2022-09-28T11:02:34;13.50;93.00
21331;DHT22;10824;51.632;4.950;2022-09-28T11:05:20;13.70;92.70
21331;DHT22;10824;51.632;4.950;2022-09-28T11:07:48;13.80;91.20
21331;DHT22;10824;51.632;4.950;2022-09-28T11:10:27;13.90;91.00
21331;DHT22;10824;51.632;4.950;2022-09-28T11:13:01;13.90;90.10
21331;DHT22;10824;51.632;4.950;2022-09-28T11:15:31;14.00;90.00
21331;DHT22;10824;51.632;4.950;2022-09-28T11:18:32;14.10;88.00
21331;DHT22;10824;51.632;4.950;2022-09-28T11:24:16;14.20;87.30
21331;DHT22;10824;51.632;4.950;2022-09-28T11:26:48;14.40;89.20
21331;DHT22;10824;51.632;4.950;2022-09-28T11:29:39;14.50;87.10
21331;DHT22;10824;51.632;4.950;2022-09-28T11:32:38;14.70;88.30
21331;DHT22;10824;51.632;4.950;2022-09-28T11:38:46;14.50;89.30
21331;DHT22;10824;51.632;4.950;2022-09-28T11:44:47;14.80;87.30
21331;DHT22;10824;51.632;4.950;2022-09-28T11:56:15;14.70;88.70
21331;DHT22;10824;51.632;4.950;2022-09-28T11:58:49;14.90;90.30
21331;DHT22;10824;51.632;4.950;2022-09-28T12:01:36;14.60;83.40
21331;DHT22;10824;51.632;4.950;2022-09-28T12:04:42;14.80;85.10
21331;DHT22;10824;51.632;4.950;2022-09-28T12:07:15;14.80;86.50
21331;DHT22;10824;51.632;4.950;2022-09-28T12:09:53;15.00;86.10
21331;DHT22;10824;51.632;4.950;2022-09-28T12:15:24;14.60;83.70
21331;DHT22;10824;51.632;4.950;2022-09-28T12:17:56;14.70;86.90
21331;DHT22;10824;51.632;4.950;2022-09-28T12:20:29;14.50;87.20
21331;DHT22;10824;51.632;4.950;2022-09-28T12:26:04;14.90;86.60
21331;DHT22;10824;51.632;4.950;2022-09-28T12:28:44;14.50;85.00
21331;DHT22;10824;51.632;4.950;2022-09-28T12:31:32;14.80;88.40
21331;DHT22;10824;51.632;4.950;2022-09-28T12:34:01;14.90;87.70
21331;DHT22;10824;51.632;4.950;2022-09-28T12:36:48;15.10;86.20
21331;DHT22;10824;51.632;4.950;2022-09-28T12:56:15;14.90;84.50
21331;DHT22;10824;51.632;4.950;2022-09-28T13:01:41;15.00;86.20
21331;DHT22;10824;51.632;4.950;2022-09-28T13:13:05;14.40;84.90
21331;DHT22;10824;51.632;4.950;2022-09-28T13:23:27;14.50;82.50
21331;DHT22;10824;51.632;4.950;2022-09-28T13:28:42;14.80;82.70
21331;DHT22;10824;51.632;4.950;2022-09-28T13:31:12;14.50;81.50
21331;DHT22;10824;51.632;4.950;2022-09-28T13:33:44;14.60;85.00
21331;DHT22;10824;51.632;4.950;2022-09-28T13:38:54;14.30;83.70
21331;DHT22;10824;51.632;4.950;2022-09-28T13:46:51;14.10;78.40
21331;DHT22;10824;51.632;4.950;2022-09-28T13:57:39;13.90;75.00
21331;DHT22;10824;51.632;4.950;2022-09-28T14:18:48;14.30;78.40
21331;DHT22;10824;51.632;4.950;2022-09-28T14:25:02;14.20;76.10
21331;DHT22;10824;51.632;4.950;2022-09-28T14:38:31;14.00;82.80
21331;DHT22;10824;51.632;4.950;2022-09-28T14:41:39;14.10;82.70
21331;DHT22;10824;51.632;4.950;2022-09-28T14:44:13;14.00;82.90
21331;DHT22;10824;51.632;4.950;2022-09-28T14:46:43;13.90;82.50
21331;DHT22;10824;51.632;4.950;2022-09-28T14:54:27;13.40;85.60
21331;DHT22;10824;51.632;4.950;2022-09-28T14:57:15;13.40;86.20
21331;DHT22;10824;51.632;4.950;2022-09-28T14:59:44;13.30;86.30
21331;DHT22;10824;51.632;4.950;2022-09-28T15:02:31;13.20;79.90
21331;DHT22;10824;51.632;4.950;2022-09-28T15:07:48;13.20;81.90
21331;DHT22;10824;51.632;4.950;2022-09-28T15:12:54;13.20;84.20
21331;DHT22;10824;51.632;4.950;2022-09-28T15:15:37;13.10;83.40
21331;DHT22;10824;51.632;4.950;2022-09-28T15:18:15;13.00;84.10
21331;DHT22;10824;51.632;4.950;2022-09-28T15:20:47;13.00;85.90
21331;DHT22;10824;51.632;4.950;2022-09-28T15:23:34;13.00;85.40
21331;DHT22;10824;51.632;4.950;2022-09-28T15:26:03;13.00;86.40
21331;DHT22;10824;51.632;4.950;2022-09-28T15:28:34;13.00;87.30
21331;DHT22;10824;51.632;4.950;2022-09-28T15:31:03;13.10;87.30
21331;DHT22;10824;51.632;4.950;2022-09-28T15:33:33;13.30;87.30
21331;DHT22;10824;51.632;4.950;2022-09-28T15:36:28;13.50;87.00
21331;DHT22;10824;51.632;4.950;2022-09-28T15:39:02;13.60;84.90
21331;DHT22;10824;51.632;4.950;2022-09-28T15:41:30;13.70;85.30
21331;DHT22;10824;51.632;4.950;2022-09-28T15:46:39;13.60;85.10
21331;DHT22;10824;51.632;4.950;2022-09-28T15:49:34;13.60;85.90
21331;DHT22;10824;51.632;4.950;2022-09-28T15:52:05;13.40;83.00
21331;DHT22;10824;51.632;4.950;2022-09-28T15:54:41;13.40;84.50
21331;DHT22;10824;51.632;4.950;2022-09-28T15:57:37;13.50;85.20
21331;DHT22;10824;51.632;4.950;2022-09-28T16:13:56;13.20;84.80
21331;DHT22;10824;51.632;4.950;2022-09-28T16:16:36;13.10;85.60
21331;DHT22;10824;51.632;4.950;2022-09-28T16:19:24;13.10;85.40
21331;DHT22;10824;51.632;4.950;2022-09-28T16:21:55;13.10;87.60
21331;DHT22;10824;51.632;4.950;2022-09-28T16:24:32;13.10;88.50
21331;DHT22;10824;51.632;4.950;2022-09-28T16:27:08;13.00;87.20
21331;DHT22;10824;51.632;4.950;2022-09-28T16:32:37;13.00;91.20
21331;DHT22;10824;51.632;4.950;2022-09-28T16:37:38;12.90;87.90
21331;DHT22;10824;51.632;4.950;2022-09-28T16:40:09;12.90;89.80
21331;DHT22;10824;51.632;4.950;2022-09-28T16:42:37;12.80;88.50
21331;DHT22;10824;51.632;4.950;2022-09-28T16:45:08;12.80;88.00
21331;DHT22;10824;51.632;4.950;2022-09-28T16:47:38;12.70;86.10
21331;DHT22;10824;51.632;4.950;2022-09-28T16:50:06;12.70;85.90
21331;DHT22;10824;51.632;4.950;2022-09-28T16:52:33;12.60;87.20
21331;DHT22;10824;51.632;4.950;2022-09-28T16:55:25;12.50;86.00
21331;DHT22;10824;51.632;4.950;2022-09-28T16:58:06;12.50;88.90
21331;DHT22;10824;51.632;4.950;2022-09-28T17:00:33;12.50;89.20
21331;DHT22;10824;51.632;4.950;2022-09-28T17:03:00;12.40;89.30
21331;DHT22;10824;51.632;4.950;2022-09-28T17:05:31;12.40;88.90
21331;DHT22;10824;51.632;4.950;2022-09-28T17:08:01;12.30;88.30
21331;DHT22;10824;51.632;4.950;2022-09-28T17:10:35;12.30;89.60
21331;DHT22;10824;51.632;4.950;2022-09-28T17:13:25;12.30;90.40
21331;DHT22;10824;51.632;4.950;2022-09-28T17:15:58;12.20;91.20
21331;DHT22;10824;51.632;4.950;2022-09-28T17:18:31;12.20;91.10
21331;DHT22;10824;51.632;4.950;2022-09-28T17:21:01;12.10;92.30
21331;DHT22;10824;51.632;4.950;2022-09-28T17:23:29;12.00;92.80
21331;DHT22;10824;51.632;4.950;2022-09-28T17:25:57;12.00;94.60
21331;DHT22;10824;51.632;4.950;2022-09-28T17:28:32;12.00;94.70
21331;DHT22;10824;51.632;4.950;2022-09-28T17:31:00;12.00;95.90
21331;DHT22;10824;51.632;4.950;2022-09-28T17:33:28;11.80;95.90
21331;DHT22;10824;51.632;4.950;2022-09-28T17:36:00;11.90;95.80
21331;DHT22;10824;51.632;4.950;2022-09-28T17:38:30;11.80;94.70
21331;DHT22;10824;51.632;4.950;2022-09-28T17:40:57;11.80;95.00
21331;DHT22;10824;51.632;4.950;2022-09-28T17:43:24;11.80;94.70
21331;DHT22;10824;51.632;4.950;2022-09-28T17:45:51;11.80;95.60
21331;DHT22;10824;51.632;4.950;2022-09-28T17:48:19;11.70;95.90
21331;DHT22;10824;51.632;4.950;2022-09-28T17:50:50;11.70;96.00
21331;DHT22;10824;51.632;4.950;2022-09-28T17:53:17;11.70;96.80
21331;DHT22;10824;51.632;4.950;2022-09-28T17:55:44;11.70;97.10
21331;DHT22;10824;51.632;4.950;2022-09-28T17:58:19;11.70;96.50
21331;DHT22;10824;51.632;4.950;2022-09-28T18:00:49;11.80;96.10
21331;DHT22;10824;51.632;4.950;2022-09-28T18:03:19;11.80;95.30
21331;DHT22;10824;51.632;4.950;2022-09-28T18:06:04;11.80;95.00
21331;DHT22;10824;51.632;4.950;2022-09-28T18:08:32;11.70;95.10
21331;DHT22;10824;51.632;4.950;2022-09-28T18:10:59;11.70;95.50
21331;DHT22;10824;51.632;4.950;2022-09-28T18:13:27;11.60;95.20
21331;DHT22;10824;51.632;4.950;2022-09-28T18:15:55;11.60;95.40
21331;DHT22;10824;51.632;4.950;2022-09-28T18:18:23;11.50;97.10
21331;DHT22;10824;51.632;4.950;2022-09-28T18:20:51;11.50;98.00
21331;DHT22;10824;51.632;4.950;2022-09-28T18:23:18;11.40;98.60
21331;DHT22;10824;51.632;4.950;2022-09-28T18:25:47;11.40;99.10
21331;DHT22;10824;51.632;4.950;2022-09-28T18:28:15;11.40;98.20
21331;DHT22;10824;51.632;4.950;2022-09-28T18:30:44;11.40;98.20
21331;DHT22;10824;51.632;4.950;2022-09-28T18:33:12;11.30;99.00
21331;DHT22;10824;51.632;4.950;2022-09-28T18:35:48;11.20;99.80
21331;DHT22;10824;51.632;4.950;2022-09-28T18:38:16;11.10;99.90
21331;DHT22;10824;51.632;4.950;2022-09-28T18:40:43;11.00;99.90
21331;DHT22;10824;51.632;4.950;2022-09-28T18:43:10;11.00;99.90
21331;DHT22;10824;51.632;4.950;2022-09-28T18:45:37;11.00;99.90
21331;DHT22;10824;51.632;4.950;2022-09-28T18:48:04;10.90;99.90
21331;DHT22;10824;51.632;4.950;2022-09-28T18:50:31;10.80;99.90
21331;DHT22;10824;51.632;4.950;2022-09-28T18:53:00;10.80;99.90
21331;DHT22;10824;51.632;4.950;2022-09-28T18:55:39;10.70;99.90
21331;DHT22;10824;51.632;4.950;2022-09-28T18:58:08;10.70;99.90
21331;DHT22;10824;51.632;4.950;2022-09-28T19:00:40;10.60;99.90
21331;DHT22;10824;51.632;4.950;2022-09-28T19:03:10;10.50;99.90
21331;DHT22;10824;51.632;4.950;2022-09-28T19:05:42;10.40;99.90
21331;DHT22;10824;51.632;4.950;2022-09-28T19:08:09;10.30;99.90
21331;DHT22;10824;51.632;4.950;2022-09-28T19:10:36;10.30;99.90
21331;DHT22;10824;51.632;4.950;2022-09-28T19:13:11;10.20;99.90
21331;DHT22;10824;51.632;4.950;2022-09-28T19:15:38;10.20;99.90
21331;DHT22;10824;51.632;4.950;2022-09-28T19:18:06;10.20;99.90
21331;DHT22;10824;51.632;4.950;2022-09-28T19:20:33;10.20;99.90
21331;DHT22;10824;51.632;4.950;2022-09-28T19:23:03;10.20;99.90
21331;DHT22;10824;51.632;4.950;2022-09-28T19:25:31;10.10;99.90
21331;DHT22;10824;51.632;4.950;2022-09-28T19:27:58;10.00;99.90
21331;DHT22;10824;51.632;4.950;2022-09-28T19:30:25;10.00;99.90
21331;DHT22;10824;51.632;4.950;2022-09-28T19:32:52;9.90;99.90
21331;DHT22;10824;51.632;4.950;2022-09-28T19:35:19;10.00;99.90
21331;DHT22;10824;51.632;4.950;2022-09-28T19:37:46;10.10;99.90
21331;DHT22;10824;51.632;4.950;2022-09-28T19:40:15;10.00;99.90
21331;DHT22;10824;51.632;4.950;2022-09-28T19:42:43;10.00;99.90
21331;DHT22;10824;51.632;4.950;2022-09-28T19:45:10;9.90;99.90
21331;DHT22;10824;51.632;4.950;2022-09-28T19:47:37;10.00;99.90
21331;DHT22;10824;51.632;4.950;2022-09-28T19:50:05;9.90;99.90
21331;DHT22;10824;51.632;4.950;2022-09-28T19:52:34;9.90;99.90
21331;DHT22;10824;51.632;4.950;2022-09-28T19:55:01;9.90;99.90
21331;DHT22;10824;51.632;4.950;2022-09-28T19:57:30;9.80;99.90
21331;DHT22;10824;51.632;4.950;2022-09-28T19:59:57;9.70;99.90
21331;DHT22;10824;51.632;4.950;2022-09-28T20:02:33;9.80;99.90
21331;DHT22;10824;51.632;4.950;2022-09-28T20:05:04;9.70;99.90
21331;DHT22;10824;51.632;4.950;2022-09-28T20:07:31;9.70;99.90
21331;DHT22;10824;51.632;4.950;2022-09-28T20:10:00;9.80;99.90
21331;DHT22;10824;51.632;4.950;2022-09-28T20:12:27;9.70;99.90
21331;DHT22;10824;51.632;4.950;2022-09-28T20:14:54;9.70;99.90